Big Hole Pass

Elevation
6700ft
Aggregated by Synoptic Data
Date/Time Wind Direction Wind Speed knots Wind Gust knots RH % Accumulated Precip Air Temp Fahrenheit
2024-04-17 10:30 SW 10 14 59 24
2024-04-17 10:00 SW 12 14 62 22
2024-04-17 09:00 W 7 10 68 19
2024-04-17 08:00 W 8 10 75 16
2024-04-17 07:00 NW 7 12 75 15
2024-04-17 06:00 W 6 9 79 17
2024-04-17 05:00 W 9 10 80 18
2024-04-17 04:00 W 8 10 90 19
2024-04-17 03:00 WNW 8 12 91 21
2024-04-17 02:00 W 6 9 91 21
2024-04-17 01:00 WSW 7 9 90 22
2024-04-17 00:00 NNW 13 18 70 23
2024-04-16 23:00 NNW 11 18 49 28
2024-04-16 22:00 NNW 14 21 52 29
2024-04-16 21:00 NW 8 10 46 32
2024-04-16 20:00 NW 6 15 43 34
2024-04-16 19:00 NW 13 18 45 36
2024-04-16 18:00 NW 13 20 45 38
2024-04-16 17:00 NW 15 18 43 38
2024-04-16 16:00 NW 13 17 41 39
2024-04-16 15:00 WNW 14 19 42 40
2024-04-16 14:00 W 14 20 41 41
2024-04-16 13:00 W 10 15 41 38
2024-04-16 12:00 WSW 18 23 37 40
2024-04-16 11:00 WSW 14 17 43 37
2024-04-16 10:00 WSW 10 14 49 35
2024-04-16 09:00 W 7 10 59 31
2024-04-16 08:00 W 6 9 68 28
2024-04-16 07:00 NW 5 8 71 27
2024-04-16 06:00 W 5 8 71 27
2024-04-16 05:00 NNW 13 17 64 30
2024-04-16 04:00 NW 14 17 66 31
2024-04-16 03:00 NW 17 21 65 33
2024-04-16 02:00 WNW 12 17 66 33
2024-04-16 01:00 WNW 9 17 65 33
2024-04-16 00:00 NW 16 20 67 32
2024-04-15 23:00 WNW 7 10 65 32
2024-04-15 22:00 WNW 10 13 56 34
2024-04-15 21:00 WNW 15 19 53 36
2024-04-15 20:00 NW 15 17 45 39
2024-04-15 19:00 NW 16 21 39 43
2024-04-15 18:00 NW 15 23 37 44
2024-04-15 17:00 NW 17 23 39 45
2024-04-15 16:00 WNW 15 25 39 47
2024-04-15 15:00 WNW 16 23 49 43
2024-04-15 14:00 NW 17 23 48 45
2024-04-15 13:00 NW 14 17 61 41
2024-04-15 12:00 NNW 13 19 75 39
2024-04-15 11:00 WNW 10 14 80 38
2024-04-15 10:00 WNW 9 13 78 38
2024-04-15 09:00 WSW 12 15 78 37